sensor_id;sensor_type;location;lat;lon;timestamp;temperature;humidity
5218;DHT22;26539;51.064;6.346;2023-04-25T00:02:20;7.70;1.00
5218;DHT22;26539;51.064;6.346;2023-04-25T00:04:46;7.70;1.00
5218;DHT22;26539;51.064;6.346;2023-04-25T00:07:14;7.70;1.00
5218;DHT22;26539;51.064;6.346;2023-04-25T00:09:39;7.60;1.00
5218;DHT22;26539;51.064;6.346;2023-04-25T00:12:06;7.60;1.00
5218;DHT22;26539;51.064;6.346;2023-04-25T00:14:31;7.60;13.60
5218;DHT22;26539;51.064;6.346;2023-04-25T00:16:59;7.60;52.80
5218;DHT22;26539;51.064;6.346;2023-04-25T00:19:25;7.60;92.00
5218;DHT22;26539;51.064;6.346;2023-04-25T00:21:52;7.60;58.60
5218;DHT22;26539;51.064;6.346;2023-04-25T00:24:19;7.50;98.10
5218;DHT22;26539;51.064;6.346;2023-04-25T00:26:44;7.50;99.90
5218;DHT22;26539;51.064;6.346;2023-04-25T00:29:10;7.40;99.90
5218;DHT22;26539;51.064;6.346;2023-04-25T00:31:35;7.40;99.90
5218;DHT22;26539;51.064;6.346;2023-04-25T00:34:01;7.40;99.90
5218;DHT22;26539;51.064;6.346;2023-04-25T00:36:27;7.40;99.90
5218;DHT22;26539;51.064;6.346;2023-04-25T00:38:53;7.40;99.90
5218;DHT22;26539;51.064;6.346;2023-04-25T00:41:19;7.40;1.00
5218;DHT22;26539;51.064;6.346;2023-04-25T00:43:46;7.40;1.00
5218;DHT22;26539;51.064;6.346;2023-04-25T00:46:12;7.40;1.00
5218;DHT22;26539;51.064;6.346;2023-04-25T00:48:38;7.40;1.00
5218;DHT22;26539;51.064;6.346;2023-04-25T00:51:04;7.30;1.00
5218;DHT22;26539;51.064;6.346;2023-04-25T00:53:30;7.20;99.90
5218;DHT22;26539;51.064;6.346;2023-04-25T00:55:57;7.20;99.90
5218;DHT22;26539;51.064;6.346;2023-04-25T00:58:23;7.20;99.90
5218;DHT22;26539;51.064;6.346;2023-04-25T01:00:50;7.20;99.90
5218;DHT22;26539;51.064;6.346;2023-04-25T01:03:17;7.20;1.00
5218;DHT22;26539;51.064;6.346;2023-04-25T01:05:45;7.20;1.00
5218;DHT22;26539;51.064;6.346;2023-04-25T01:08:13;7.20;1.00
5218;DHT22;26539;51.064;6.346;2023-04-25T01:10:39;7.20;1.00
5218;DHT22;26539;51.064;6.346;2023-04-25T01:13:04;7.20;1.00
5218;DHT22;26539;51.064;6.346;2023-04-25T01:15:30;7.20;1.00
5218;DHT22;26539;51.064;6.346;2023-04-25T01:17:56;7.20;1.00
5218;DHT22;26539;51.064;6.346;2023-04-25T01:20:22;7.20;8.10
5218;DHT22;26539;51.064;6.346;2023-04-25T01:22:49;7.10;99.90
5218;DHT22;26539;51.064;6.346;2023-04-25T01:25:16;7.10;99.90
5218;DHT22;26539;51.064;6.346;2023-04-25T01:27:42;7.10;99.90
5218;DHT22;26539;51.064;6.346;2023-04-25T01:30:08;7.00;1.00
5218;DHT22;26539;51.064;6.346;2023-04-25T01:32:34;7.00;1.00
5218;DHT22;26539;51.064;6.346;2023-04-25T01:35:08;7.00;1.00
5218;DHT22;26539;51.064;6.346;2023-04-25T01:37:41;6.90;1.00
5218;DHT22;26539;51.064;6.346;2023-04-25T01:40:09;6.90;99.90
5218;DHT22;26539;51.064;6.346;2023-04-25T01:42:39;6.90;1.00
5218;DHT22;26539;51.064;6.346;2023-04-25T01:45:06;6.90;99.90
5218;DHT22;26539;51.064;6.346;2023-04-25T01:47:31;6.90;99.90
5218;DHT22;26539;51.064;6.346;2023-04-25T01:49:57;7.00;99.90
5218;DHT22;26539;51.064;6.346;2023-04-25T01:52:23;7.00;99.90
5218;DHT22;26539;51.064;6.346;2023-04-25T01:54:49;7.10;99.90
5218;DHT22;26539;51.064;6.346;2023-04-25T01:57:15;7.10;99.90
5218;DHT22;26539;51.064;6.346;2023-04-25T01:59:41;7.20;99.90
5218;DHT22;26539;51.064;6.346;2023-04-25T02:02:07;7.20;99.90
5218;DHT22;26539;51.064;6.346;2023-04-25T02:04:33;7.20;29.50
5218;DHT22;26539;51.064;6.346;2023-04-25T02:06:58;7.20;1.00
5218;DHT22;26539;51.064;6.346;2023-04-25T02:09:24;7.30;34.30
5218;DHT22;26539;51.064;6.346;2023-04-25T02:11:49;7.30;80.90
5218;DHT22;26539;51.064;6.346;2023-04-25T02:14:15;7.30;1.00
5218;DHT22;26539;51.064;6.346;2023-04-25T02:16:41;7.30;1.00
5218;DHT22;26539;51.064;6.346;2023-04-25T02:19:09;7.40;1.00
5218;DHT22;26539;51.064;6.346;2023-04-25T02:21:36;7.40;1.00
5218;DHT22;26539;51.064;6.346;2023-04-25T02:24:02;7.40;1.00
5218;DHT22;26539;51.064;6.346;2023-04-25T02:26:27;7.30;1.00
5218;DHT22;26539;51.064;6.346;2023-04-25T02:28:53;7.30;1.00
5218;DHT22;26539;51.064;6.346;2023-04-25T02:31:18;7.30;1.00
5218;DHT22;26539;51.064;6.346;2023-04-25T02:33:44;7.30;1.00
5218;DHT22;26539;51.064;6.346;2023-04-25T02:36:10;7.30;99.90
5218;DHT22;26539;51.064;6.346;2023-04-25T02:38:35;7.30;99.90
5218;DHT22;26539;51.064;6.346;2023-04-25T02:41:01;7.30;99.90
5218;DHT22;26539;51.064;6.346;2023-04-25T02:43:26;7.30;99.90
5218;DHT22;26539;51.064;6.346;2023-04-25T02:45:52;7.30;99.90
5218;DHT22;26539;51.064;6.346;2023-04-25T02:48:17;7.30;99.90
5218;DHT22;26539;51.064;6.346;2023-04-25T02:50:43;7.30;99.90
5218;DHT22;26539;51.064;6.346;2023-04-25T02:53:08;7.40;99.90
5218;DHT22;26539;51.064;6.346;2023-04-25T02:55:34;7.40;99.90
5218;DHT22;26539;51.064;6.346;2023-04-25T02:57:59;7.40;99.90
5218;DHT22;26539;51.064;6.346;2023-04-25T03:00:25;7.40;99.90
5218;DHT22;26539;51.064;6.346;2023-04-25T03:02:51;7.40;99.90
5218;DHT22;26539;51.064;6.346;2023-04-25T03:05:17;7.40;99.90
5218;DHT22;26539;51.064;6.346;2023-04-25T03:07:43;7.40;99.90
5218;DHT22;26539;51.064;6.346;2023-04-25T03:10:10;7.40;1.00
5218;DHT22;26539;51.064;6.346;2023-04-25T03:12:35;7.40;1.00
5218;DHT22;26539;51.064;6.346;2023-04-25T03:15:01;7.40;1.00
5218;DHT22;26539;51.064;6.346;2023-04-25T03:17:27;7.40;1.00
5218;DHT22;26539;51.064;6.346;2023-04-25T03:19:52;7.40;1.00
5218;DHT22;26539;51.064;6.346;2023-04-25T03:22:18;7.40;1.00
5218;DHT22;26539;51.064;6.346;2023-04-25T03:24:43;7.40;1.00
5218;DHT22;26539;51.064;6.346;2023-04-25T03:27:09;7.40;1.00
5218;DHT22;26539;51.064;6.346;2023-04-25T03:29:34;7.40;1.00
5218;DHT22;26539;51.064;6.346;2023-04-25T03:32:00;7.40;1.00
5218;DHT22;26539;51.064;6.346;2023-04-25T03:34:26;7.40;1.00
5218;DHT22;26539;51.064;6.346;2023-04-25T03:36:51;7.40;1.00
5218;DHT22;26539;51.064;6.346;2023-04-25T03:39:17;7.40;1.00
5218;DHT22;26539;51.064;6.346;2023-04-25T03:41:43;7.40;1.00
5218;DHT22;26539;51.064;6.346;2023-04-25T03:44:08;7.40;1.00
5218;DHT22;26539;51.064;6.346;2023-04-25T03:46:34;7.40;1.00
5218;DHT22;26539;51.064;6.346;2023-04-25T03:48:59;7.40;1.00
5218;DHT22;26539;51.064;6.346;2023-04-25T03:51:25;7.40;1.00
5218;DHT22;26539;51.064;6.346;2023-04-25T03:53:51;7.40;99.90
5218;DHT22;26539;51.064;6.346;2023-04-25T03:56:17;7.40;99.90
5218;DHT22;26539;51.064;6.346;2023-04-25T03:58:43;7.40;1.00
5218;DHT22;26539;51.064;6.346;2023-04-25T04:01:08;7.40;1.00
5218;DHT22;26539;51.064;6.346;2023-04-25T04:03:34;7.40;1.00
5218;DHT22;26539;51.064;6.346;2023-04-25T04:06:01;7.30;99.90
5218;DHT22;26539;51.064;6.346;2023-04-25T04:08:29;7.30;99.90
5218;DHT22;26539;51.064;6.346;2023-04-25T04:10:55;7.30;1.00
5218;DHT22;26539;51.064;6.346;2023-04-25T04:13:20;7.30;1.00
5218;DHT22;26539;51.064;6.346;2023-04-25T04:15:46;7.30;1.00
5218;DHT22;26539;51.064;6.346;2023-04-25T04:18:11;7.20;1.00
5218;DHT22;26539;51.064;6.346;2023-04-25T04:20:37;7.20;30.10
5218;DHT22;26539;51.064;6.346;2023-04-25T04:23:02;7.20;99.90
5218;DHT22;26539;51.064;6.346;2023-04-25T04:25:28;7.20;99.90
5218;DHT22;26539;51.064;6.346;2023-04-25T04:27:54;7.30;99.90
5218;DHT22;26539;51.064;6.346;2023-04-25T04:30:22;7.30;99.90
5218;DHT22;26539;51.064;6.346;2023-04-25T04:32:50;7.30;99.90
5218;DHT22;26539;51.064;6.346;2023-04-25T04:35:15;7.40;99.90
5218;DHT22;26539;51.064;6.346;2023-04-25T04:37:41;7.40;99.90
5218;DHT22;26539;51.064;6.346;2023-04-25T04:40:06;7.40;99.90
5218;DHT22;26539;51.064;6.346;2023-04-25T04:42:32;7.40;99.90
5218;DHT22;26539;51.064;6.346;2023-04-25T04:44:58;7.40;99.90
5218;DHT22;26539;51.064;6.346;2023-04-25T04:47:24;7.40;99.90
5218;DHT22;26539;51.064;6.346;2023-04-25T04:49:50;7.40;99.90
5218;DHT22;26539;51.064;6.346;2023-04-25T04:52:16;7.50;27.40
5218;DHT22;26539;51.064;6.346;2023-04-25T04:54:42;7.50;1.00
5218;DHT22;26539;51.064;6.346;2023-04-25T04:57:07;7.50;1.00
5218;DHT22;26539;51.064;6.346;2023-04-25T04:59:33;7.60;1.00
5218;DHT22;26539;51.064;6.346;2023-04-25T05:01:58;7.70;99.90
5218;DHT22;26539;51.064;6.346;2023-04-25T05:04:24;7.80;63.00
5218;DHT22;26539;51.064;6.346;2023-04-25T05:06:49;7.90;1.00
5218;DHT22;26539;51.064;6.346;2023-04-25T05:09:15;8.00;1.00
5218;DHT22;26539;51.064;6.346;2023-04-25T05:11:40;8.10;99.90
5218;DHT22;26539;51.064;6.346;2023-04-25T05:14:06;8.10;1.00
5218;DHT22;26539;51.064;6.346;2023-04-25T05:16:31;8.10;1.00
5218;DHT22;26539;51.064;6.346;2023-04-25T05:18:57;8.20;99.90
5218;DHT22;26539;51.064;6.346;2023-04-25T05:21:22;8.30;99.90
5218;DHT22;26539;51.064;6.346;2023-04-25T05:23:48;8.30;1.00
5218;DHT22;26539;51.064;6.346;2023-04-25T05:26:13;8.50;1.00
5218;DHT22;26539;51.064;6.346;2023-04-25T05:28:42;8.60;99.90
5218;DHT22;26539;51.064;6.346;2023-04-25T05:31:09;9.00;21.30
5218;DHT22;26539;51.064;6.346;2023-04-25T05:33:35;9.70;99.90
5218;DHT22;26539;51.064;6.346;2023-04-25T05:36:01;10.20;99.90
5218;DHT22;26539;51.064;6.346;2023-04-25T05:38:26;10.80;99.90
5218;DHT22;26539;51.064;6.346;2023-04-25T05:40:52;11.70;1.00
5218;DHT22;26539;51.064;6.346;2023-04-25T05:43:17;12.00;1.00
5218;DHT22;26539;51.064;6.346;2023-04-25T05:45:43;12.10;1.00
5218;DHT22;26539;51.064;6.346;2023-04-25T05:48:08;12.20;99.90
5218;DHT22;26539;51.064;6.346;2023-04-25T05:50:34;12.70;99.90
5218;DHT22;26539;51.064;6.346;2023-04-25T05:52:59;13.60;99.90
5218;DHT22;26539;51.064;6.346;2023-04-25T05:55:25;14.50;99.90
5218;DHT22;26539;51.064;6.346;2023-04-25T05:57:50;15.80;99.90
5218;DHT22;26539;51.064;6.346;2023-04-25T06:00:16;17.50;99.90
5218;DHT22;26539;51.064;6.346;2023-04-25T06:02:42;18.50;99.90
5218;DHT22;26539;51.064;6.346;2023-04-25T06:05:08;19.30;99.90
5218;DHT22;26539;51.064;6.346;2023-04-25T06:07:33;18.60;99.90
5218;DHT22;26539;51.064;6.346;2023-04-25T06:09:59;17.30;99.90
5218;DHT22;26539;51.064;6.346;2023-04-25T06:12:26;16.30;99.90
5218;DHT22;26539;51.064;6.346;2023-04-25T06:14:51;15.40;99.90
5218;DHT22;26539;51.064;6.346;2023-04-25T06:17:17;14.50;99.90
5218;DHT22;26539;51.064;6.346;2023-04-25T06:19:42;13.80;99.90
5218;DHT22;26539;51.064;6.346;2023-04-25T06:22:08;13.30;99.90
5218;DHT22;26539;51.064;6.346;2023-04-25T06:24:34;12.90;99.90
5218;DHT22;26539;51.064;6.346;2023-04-25T06:27:00;12.50;99.90
5218;DHT22;26539;51.064;6.346;2023-04-25T06:29:25;12.30;99.90
5218;DHT22;26539;51.064;6.346;2023-04-25T06:31:51;12.20;99.90
5218;DHT22;26539;51.064;6.346;2023-04-25T06:34:16;12.20;99.90
5218;DHT22;26539;51.064;6.346;2023-04-25T06:36:42;12.20;99.90
5218;DHT22;26539;51.064;6.346;2023-04-25T06:39:09;12.20;99.90
5218;DHT22;26539;51.064;6.346;2023-04-25T06:41:35;12.10;99.90
5218;DHT22;26539;51.064;6.346;2023-04-25T06:44:00;11.90;99.90
5218;DHT22;26539;51.064;6.346;2023-04-25T06:46:26;12.00;99.90
5218;DHT22;26539;51.064;6.346;2023-04-25T06:48:52;12.10;99.90
5218;DHT22;26539;51.064;6.346;2023-04-25T06:51:17;12.10;99.90
5218;DHT22;26539;51.064;6.346;2023-04-25T06:53:43;12.00;99.90
5218;DHT22;26539;51.064;6.346;2023-04-25T06:56:08;12.10;99.90
5218;DHT22;26539;51.064;6.346;2023-04-25T06:58:34;12.10;99.90
5218;DHT22;26539;51.064;6.346;2023-04-25T07:01:00;12.10;99.90
5218;DHT22;26539;51.064;6.346;2023-04-25T07:03:25;12.10;99.90
5218;DHT22;26539;51.064;6.346;2023-04-25T07:05:51;12.20;99.90
5218;DHT22;26539;51.064;6.346;2023-04-25T07:08:16;12.30;99.90
5218;DHT22;26539;51.064;6.346;2023-04-25T07:10:42;12.40;99.90
5218;DHT22;26539;51.064;6.346;2023-04-25T07:13:08;12.50;99.90
5218;DHT22;26539;51.064;6.346;2023-04-25T07:15:33;12.70;99.90
5218;DHT22;26539;51.064;6.346;2023-04-25T07:17:59;13.00;99.90
5218;DHT22;26539;51.064;6.346;2023-04-25T07:20:24;13.40;99.90
5218;DHT22;26539;51.064;6.346;2023-04-25T07:22:50;13.90;99.90
5218;DHT22;26539;51.064;6.346;2023-04-25T07:25:16;14.30;99.90
5218;DHT22;26539;51.064;6.346;2023-04-25T07:27:42;14.40;99.90
5218;DHT22;26539;51.064;6.346;2023-04-25T07:30:08;14.50;99.90
5218;DHT22;26539;51.064;6.346;2023-04-25T07:32:34;14.70;99.90
5218;DHT22;26539;51.064;6.346;2023-04-25T07:35:00;15.20;99.90
5218;DHT22;26539;51.064;6.346;2023-04-25T07:37:27;15.70;99.90
5218;DHT22;26539;51.064;6.346;2023-04-25T07:39:52;16.40;99.90
5218;DHT22;26539;51.064;6.346;2023-04-25T07:42:18;17.20;99.90
5218;DHT22;26539;51.064;6.346;2023-04-25T07:44:43;17.50;99.90
5218;DHT22;26539;51.064;6.346;2023-04-25T07:47:09;17.70;99.90
5218;DHT22;26539;51.064;6.346;2023-04-25T07:49:36;17.80;99.90
5218;DHT22;26539;51.064;6.346;2023-04-25T07:52:02;17.60;99.90
5218;DHT22;26539;51.064;6.346;2023-04-25T07:54:28;17.30;99.90
5218;DHT22;26539;51.064;6.346;2023-04-25T07:56:54;17.30;99.90
5218;DHT22;26539;51.064;6.346;2023-04-25T07:59:20;17.90;99.90
5218;DHT22;26539;51.064;6.346;2023-04-25T08:01:45;18.50;99.90
5218;DHT22;26539;51.064;6.346;2023-04-25T08:04:11;18.60;99.90
5218;DHT22;26539;51.064;6.346;2023-04-25T08:06:37;18.40;99.90
5218;DHT22;26539;51.064;6.346;2023-04-25T08:09:02;18.20;99.90
5218;DHT22;26539;51.064;6.346;2023-04-25T08:11:30;18.50;99.90
5218;DHT22;26539;51.064;6.346;2023-04-25T08:13:56;19.10;99.90
5218;DHT22;26539;51.064;6.346;2023-04-25T08:16:21;19.50;99.90
5218;DHT22;26539;51.064;6.346;2023-04-25T08:18:47;19.10;99.90
5218;DHT22;26539;51.064;6.346;2023-04-25T08:21:13;18.90;99.90
5218;DHT22;26539;51.064;6.346;2023-04-25T08:23:39;20.20;99.90
5218;DHT22;26539;51.064;6.346;2023-04-25T08:26:04;20.90;99.90
5218;DHT22;26539;51.064;6.346;2023-04-25T08:28:31;20.70;99.90
5218;DHT22;26539;51.064;6.346;2023-04-25T08:30:57;20.50;99.90
5218;DHT22;26539;51.064;6.346;2023-04-25T08:33:22;20.90;99.90
5218;DHT22;26539;51.064;6.346;2023-04-25T08:35:48;21.00;99.90
5218;DHT22;26539;51.064;6.346;2023-04-25T08:38:13;20.40;99.90
5218;DHT22;26539;51.064;6.346;2023-04-25T08:40:40;19.60;99.90
5218;DHT22;26539;51.064;6.346;2023-04-25T08:43:07;18.70;99.90
5218;DHT22;26539;51.064;6.346;2023-04-25T08:45:39;18.30;99.90
5218;DHT22;26539;51.064;6.346;2023-04-25T08:48:09;18.00;99.90
5218;DHT22;26539;51.064;6.346;2023-04-25T08:50:36;19.70;99.90
5218;DHT22;26539;51.064;6.346;2023-04-25T08:53:04;20.90;99.90
5218;DHT22;26539;51.064;6.346;2023-04-25T08:55:33;22.20;99.90
5218;DHT22;26539;51.064;6.346;2023-04-25T08:58:01;22.80;99.90
5218;DHT22;26539;51.064;6.346;2023-04-25T09:00:26;22.50;99.90
5218;DHT22;26539;51.064;6.346;2023-04-25T09:02:52;22.50;99.90
5218;DHT22;26539;51.064;6.346;2023-04-25T09:05:19;22.40;99.90
5218;DHT22;26539;51.064;6.346;2023-04-25T09:07:44;21.80;99.90
5218;DHT22;26539;51.064;6.346;2023-04-25T09:10:10;21.00;99.90
5218;DHT22;26539;51.064;6.346;2023-04-25T09:12:35;20.10;99.90
5218;DHT22;26539;51.064;6.346;2023-04-25T09:15:07;19.30;99.90
5218;DHT22;26539;51.064;6.346;2023-04-25T09:17:32;18.60;99.90
5218;DHT22;26539;51.064;6.346;2023-04-25T09:20:09;18.00;99.90
5218;DHT22;26539;51.064;6.346;2023-04-25T09:22:36;18.10;99.90
5218;DHT22;26539;51.064;6.346;2023-04-25T09:25:03;20.40;99.90
5218;DHT22;26539;51.064;6.346;2023-04-25T09:27:29;21.70;99.90
5218;DHT22;26539;51.064;6.346;2023-04-25T09:29:59;21.40;99.90
5218;DHT22;26539;51.064;6.346;2023-04-25T09:32:28;20.80;99.90
5218;DHT22;26539;51.064;6.346;2023-04-25T09:34:55;20.80;99.90
5218;DHT22;26539;51.064;6.346;2023-04-25T09:37:26;20.30;99.90
5218;DHT22;26539;51.064;6.346;2023-04-25T09:39:58;19.70;99.90
5218;DHT22;26539;51.064;6.346;2023-04-25T09:42:31;19.50;99.90
5218;DHT22;26539;51.064;6.346;2023-04-25T09:44:58;19.40;99.90
5218;DHT22;26539;51.064;6.346;2023-04-25T09:47:25;21.50;99.90
5218;DHT22;26539;51.064;6.346;2023-04-25T09:49:52;24.70;99.90
5218;DHT22;26539;51.064;6.346;2023-04-25T09:52:22;26.30;99.90
5218;DHT22;26539;51.064;6.346;2023-04-25T09:54:49;25.50;99.90
5218;DHT22;26539;51.064;6.346;2023-04-25T09:57:19;24.30;99.90
5218;DHT22;26539;51.064;6.346;2023-04-25T09:59:53;22.70;99.90
5218;DHT22;26539;51.064;6.346;2023-04-25T10:02:24;21.20;99.90
5218;DHT22;26539;51.064;6.346;2023-04-25T10:04:54;19.70;99.90
5218;DHT22;26539;51.064;6.346;2023-04-25T10:07:29;18.50;99.90
5218;DHT22;26539;51.064;6.346;2023-04-25T10:10:03;17.60;99.90
5218;DHT22;26539;51.064;6.346;2023-04-25T10:12:30;16.90;99.90
5218;DHT22;26539;51.064;6.346;2023-04-25T10:14:59;16.20;99.90
5218;DHT22;26539;51.064;6.346;2023-04-25T10:17:26;15.70;99.90
5218;DHT22;26539;51.064;6.346;2023-04-25T10:19:55;15.50;99.90
5218;DHT22;26539;51.064;6.346;2023-04-25T10:22:42;15.50;99.90
5218;DHT22;26539;51.064;6.346;2023-04-25T10:25:10;15.80;99.90
5218;DHT22;26539;51.064;6.346;2023-04-25T10:27:36;16.20;99.90
5218;DHT22;26539;51.064;6.346;2023-04-25T10:30:10;16.70;99.90
5218;DHT22;26539;51.064;6.346;2023-04-25T10:32:39;17.60;99.90
5218;DHT22;26539;51.064;6.346;2023-04-25T10:37:38;18.20;99.90
5218;DHT22;26539;51.064;6.346;2023-04-25T10:40:10;18.40;99.90
5218;DHT22;26539;51.064;6.346;2023-04-25T10:42:36;18.50;99.90
5218;DHT22;26539;51.064;6.346;2023-04-25T10:45:04;18.40;99.90
5218;DHT22;26539;51.064;6.346;2023-04-25T10:47:36;18.80;99.90
5218;DHT22;26539;51.064;6.346;2023-04-25T10:50:08;19.00;99.90
5218;DHT22;26539;51.064;6.346;2023-04-25T10:52:34;19.20;99.90
5218;DHT22;26539;51.064;6.346;2023-04-25T10:55:03;19.00;99.90
5218;DHT22;26539;51.064;6.346;2023-04-25T10:57:49;18.90;99.90
5218;DHT22;26539;51.064;6.346;2023-04-25T11:00:17;18.70;99.90
5218;DHT22;26539;51.064;6.346;2023-04-25T11:02:44;18.50;99.90
5218;DHT22;26539;51.064;6.346;2023-04-25T11:05:18;18.30;99.90
5218;DHT22;26539;51.064;6.346;2023-04-25T11:07:53;18.10;99.90
5218;DHT22;26539;51.064;6.346;2023-04-25T11:10:25;18.00;99.90
5218;DHT22;26539;51.064;6.346;2023-04-25T11:12:51;18.10;99.90
5218;DHT22;26539;51.064;6.346;2023-04-25T11:15:16;17.80;99.90
5218;DHT22;26539;51.064;6.346;2023-04-25T11:17:42;17.70;99.90
5218;DHT22;26539;51.064;6.346;2023-04-25T11:20:08;18.80;99.90
5218;DHT22;26539;51.064;6.346;2023-04-25T11:22:37;20.80;99.90
5218;DHT22;26539;51.064;6.346;2023-04-25T11:25:05;22.50;99.90
5218;DHT22;26539;51.064;6.346;2023-04-25T11:27:31;23.80;99.90
5218;DHT22;26539;51.064;6.346;2023-04-25T11:29:56;24.30;99.90
5218;DHT22;26539;51.064;6.346;2023-04-25T11:32:22;24.80;99.90
5218;DHT22;26539;51.064;6.346;2023-04-25T11:34:48;25.40;99.90
5218;DHT22;26539;51.064;6.346;2023-04-25T11:37:14;24.80;99.90
5218;DHT22;26539;51.064;6.346;2023-04-25T11:39:43;24.70;99.90
5218;DHT22;26539;51.064;6.346;2023-04-25T11:42:10;25.10;99.90
5218;DHT22;26539;51.064;6.346;2023-04-25T11:44:38;24.60;99.90
5218;DHT22;26539;51.064;6.346;2023-04-25T11:47:04;24.00;99.90
5218;DHT22;26539;51.064;6.346;2023-04-25T11:49:31;23.20;99.90
5218;DHT22;26539;51.064;6.346;2023-04-25T11:51:57;21.90;99.90
5218;DHT22;26539;51.064;6.346;2023-04-25T11:54:22;20.70;99.90
5218;DHT22;26539;51.064;6.346;2023-04-25T11:56:48;19.60;98.60
5218;DHT22;26539;51.064;6.346;2023-04-25T11:59:14;18.90;96.90
5218;DHT22;26539;51.064;6.346;2023-04-25T12:01:41;18.20;96.30
5218;DHT22;26539;51.064;6.346;2023-04-25T12:04:33;17.40;94.80
5218;DHT22;26539;51.064;6.346;2023-04-25T12:06:58;16.80;94.10
5218;DHT22;26539;51.064;6.346;2023-04-25T12:09:31;16.40;93.50
5218;DHT22;26539;51.064;6.346;2023-04-25T12:11:59;16.20;94.10
5218;DHT22;26539;51.064;6.346;2023-04-25T12:14:29;15.80;93.80
5218;DHT22;26539;51.064;6.346;2023-04-25T12:16:57;15.60;93.70
5218;DHT22;26539;51.064;6.346;2023-04-25T12:19:23;15.50;94.40
5218;DHT22;26539;51.064;6.346;2023-04-25T12:21:50;15.60;95.30
5218;DHT22;26539;51.064;6.346;2023-04-25T12:27:00;16.50;99.60
5218;DHT22;26539;51.064;6.346;2023-04-25T12:29:28;18.50;99.90
5218;DHT22;26539;51.064;6.346;2023-04-25T12:31:54;20.20;99.90
5218;DHT22;26539;51.064;6.346;2023-04-25T12:34:20;21.50;99.90
5218;DHT22;26539;51.064;6.346;2023-04-25T12:36:46;22.20;99.90
5218;DHT22;26539;51.064;6.346;2023-04-25T12:39:23;22.90;99.90
5218;DHT22;26539;51.064;6.346;2023-04-25T12:41:50;23.50;99.90
5218;DHT22;26539;51.064;6.346;2023-04-25T12:44:15;24.00;99.90
5218;DHT22;26539;51.064;6.346;2023-04-25T12:46:42;24.30;99.90
5218;DHT22;26539;51.064;6.346;2023-04-25T12:49:08;24.40;99.90
5218;DHT22;26539;51.064;6.346;2023-04-25T12:51:37;23.50;99.90
5218;DHT22;26539;51.064;6.346;2023-04-25T12:54:04;22.60;99.90
5218;DHT22;26539;51.064;6.346;2023-04-25T12:56:30;21.70;99.90
5218;DHT22;26539;51.064;6.346;2023-04-25T12:58:56;20.80;99.90
5218;DHT22;26539;51.064;6.346;2023-04-25T13:01:22;19.80;97.10
5218;DHT22;26539;51.064;6.346;2023-04-25T13:03:48;19.20;95.20
5218;DHT22;26539;51.064;6.346;2023-04-25T13:06:14;18.70;94.80
5218;DHT22;26539;51.064;6.346;2023-04-25T13:08:40;18.20;93.80
5218;DHT22;26539;51.064;6.346;2023-04-25T13:11:07;18.00;92.80
5218;DHT22;26539;51.064;6.346;2023-04-25T13:13:33;17.90;93.00
5218;DHT22;26539;51.064;6.346;2023-04-25T13:16:00;17.80;93.00
5218;DHT22;26539;51.064;6.346;2023-04-25T13:18:27;17.60;93.20
5218;DHT22;26539;51.064;6.346;2023-04-25T13:20:53;17.40;91.90
5218;DHT22;26539;51.064;6.346;2023-04-25T13:23:19;17.30;91.70
5218;DHT22;26539;51.064;6.346;2023-04-25T13:25:46;17.00;91.30
5218;DHT22;26539;51.064;6.346;2023-04-25T13:28:11;16.80;91.40
5218;DHT22;26539;51.064;6.346;2023-04-25T13:30:39;16.60;91.60
5218;DHT22;26539;51.064;6.346;2023-04-25T13:33:05;16.50;92.50
5218;DHT22;26539;51.064;6.346;2023-04-25T13:35:32;16.60;93.80
5218;DHT22;26539;51.064;6.346;2023-04-25T13:37:58;17.30;96.20
5218;DHT22;26539;51.064;6.346;2023-04-25T13:40:23;18.00;98.80
5218;DHT22;26539;51.064;6.346;2023-04-25T13:42:49;18.30;99.50
5218;DHT22;26539;51.064;6.346;2023-04-25T13:45:14;18.80;99.90
5218;DHT22;26539;51.064;6.346;2023-04-25T13:47:40;19.20;99.90
5218;DHT22;26539;51.064;6.346;2023-04-25T13:50:06;19.80;99.90
5218;DHT22;26539;51.064;6.346;2023-04-25T13:52:32;20.10;99.90
5218;DHT22;26539;51.064;6.346;2023-04-25T13:54:58;20.10;99.90
5218;DHT22;26539;51.064;6.346;2023-04-25T13:57:24;20.10;99.90
5218;DHT22;26539;51.064;6.346;2023-04-25T13:59:50;20.10;99.90
5218;DHT22;26539;51.064;6.346;2023-04-25T14:02:16;19.70;99.90
5218;DHT22;26539;51.064;6.346;2023-04-25T14:04:42;19.60;99.90
5218;DHT22;26539;51.064;6.346;2023-04-25T14:07:07;19.50;99.90
5218;DHT22;26539;51.064;6.346;2023-04-25T14:09:33;19.10;99.10
5218;DHT22;26539;51.064;6.346;2023-04-25T14:11:59;19.00;98.90
5218;DHT22;26539;51.064;6.346;2023-04-25T14:14:25;18.80;97.40
5218;DHT22;26539;51.064;6.346;2023-04-25T14:16:51;18.40;95.80
5218;DHT22;26539;51.064;6.346;2023-04-25T14:19:19;18.30;95.60
5218;DHT22;26539;51.064;6.346;2023-04-25T14:21:45;17.80;94.10
5218;DHT22;26539;51.064;6.346;2023-04-25T14:24:11;17.70;94.40
5218;DHT22;26539;51.064;6.346;2023-04-25T14:26:38;17.70;94.60
5218;DHT22;26539;51.064;6.346;2023-04-25T14:29:04;17.50;93.50
5218;DHT22;26539;51.064;6.346;2023-04-25T14:31:31;17.30;92.90
5218;DHT22;26539;51.064;6.346;2023-04-25T14:33:57;17.00;91.60
5218;DHT22;26539;51.064;6.346;2023-04-25T14:36:22;16.90;91.50
5218;DHT22;26539;51.064;6.346;2023-04-25T14:38:48;16.90;91.80
5218;DHT22;26539;51.064;6.346;2023-04-25T14:41:13;16.90;91.30
5218;DHT22;26539;51.064;6.346;2023-04-25T14:43:38;16.90;91.70
5218;DHT22;26539;51.064;6.346;2023-04-25T14:46:06;16.90;91.90
5218;DHT22;26539;51.064;6.346;2023-04-25T14:48:32;16.90;92.10
5218;DHT22;26539;51.064;6.346;2023-04-25T14:50:57;16.70;92.40
5218;DHT22;26539;51.064;6.346;2023-04-25T14:53:23;16.50;92.50
5218;DHT22;26539;51.064;6.346;2023-04-25T14:55:49;16.40;92.60
5218;DHT22;26539;51.064;6.346;2023-04-25T14:58:14;16.30;92.40
5218;DHT22;26539;51.064;6.346;2023-04-25T15:00:40;16.30;92.30
5218;DHT22;26539;51.064;6.346;2023-04-25T15:03:06;16.20;92.20
5218;DHT22;26539;51.064;6.346;2023-04-25T15:05:33;16.20;92.80
5218;DHT22;26539;51.064;6.346;2023-04-25T15:07:58;16.10;93.30
5218;DHT22;26539;51.064;6.346;2023-04-25T15:10:24;16.10;92.80
5218;DHT22;26539;51.064;6.346;2023-04-25T15:12:49;16.00;92.80
5218;DHT22;26539;51.064;6.346;2023-04-25T15:15:15;16.00;95.40
5218;DHT22;26539;51.064;6.346;2023-04-25T15:17:41;16.00;94.00
5218;DHT22;26539;51.064;6.346;2023-04-25T15:20:09;16.10;93.60
5218;DHT22;26539;51.064;6.346;2023-04-25T15:22:35;16.10;93.30
5218;DHT22;26539;51.064;6.346;2023-04-25T15:25:01;16.20;93.70
5218;DHT22;26539;51.064;6.346;2023-04-25T15:27:28;16.30;93.20
5218;DHT22;26539;51.064;6.346;2023-04-25T15:29:53;16.40;92.80
5218;DHT22;26539;51.064;6.346;2023-04-25T15:32:19;16.40;92.10
5218;DHT22;26539;51.064;6.346;2023-04-25T15:34:45;16.20;92.10
5218;DHT22;26539;51.064;6.346;2023-04-25T15:37:10;16.00;91.30
5218;DHT22;26539;51.064;6.346;2023-04-25T15:39:36;15.80;90.80
5218;DHT22;26539;51.064;6.346;2023-04-25T15:42:01;15.70;90.90
5218;DHT22;26539;51.064;6.346;2023-04-25T15:44:28;15.50;90.80
5218;DHT22;26539;51.064;6.346;2023-04-25T15:46:54;15.40;91.00
5218;DHT22;26539;51.064;6.346;2023-04-25T15:49:19;15.50;91.30
5218;DHT22;26539;51.064;6.346;2023-04-25T15:51:46;15.40;91.40
5218;DHT22;26539;51.064;6.346;2023-04-25T15:54:12;15.30;91.00
5218;DHT22;26539;51.064;6.346;2023-04-25T15:56:38;15.10;90.30